sensor_id;sensor_type;location;lat;lon;timestamp;P1;durP1;ratioP1;P2;durP2;ratioP2
60964;SDS011;46834;51.100;6.886;2023-02-01T00:02:06;10.20;;;4.37;;
60964;SDS011;46834;51.100;6.886;2023-02-01T00:04:32;6.87;;;4.10;;
60964;SDS011;46834;51.100;6.886;2023-02-01T00:06:57;10.07;;;4.33;;
60964;SDS011;46834;51.100;6.886;2023-02-01T00:09:23;8.27;;;4.50;;
60964;SDS011;46834;51.100;6.886;2023-02-01T00:11:49;8.70;;;4.10;;
60964;SDS011;46834;51.100;6.886;2023-02-01T00:14:14;9.07;;;3.90;;
60964;SDS011;46834;51.100;6.886;2023-02-01T00:16:40;8.67;;;4.13;;
60964;SDS011;46834;51.100;6.886;2023-02-01T00:19:07;8.90;;;3.70;;
60964;SDS011;46834;51.100;6.886;2023-02-01T00:21:38;8.43;;;4.20;;
60964;SDS011;46834;51.100;6.886;2023-02-01T00:24:04;12.10;;;4.70;;
60964;SDS011;46834;51.100;6.886;2023-02-01T00:26:37;9.70;;;4.00;;
60964;SDS011;46834;51.100;6.886;2023-02-01T00:29:09;12.97;;;4.10;;
60964;SDS011;46834;51.100;6.886;2023-02-01T00:31:39;8.37;;;3.37;;
60964;SDS011;46834;51.100;6.886;2023-02-01T00:34:06;12.13;;;4.50;;
60964;SDS011;46834;51.100;6.886;2023-02-01T00:36:35;8.40;;;3.60;;
60964;SDS011;46834;51.100;6.886;2023-02-01T00:39:00;8.60;;;3.97;;
60964;SDS011;46834;51.100;6.886;2023-02-01T00:41:26;9.97;;;3.77;;
60964;SDS011;46834;51.100;6.886;2023-02-01T00:43:52;8.47;;;3.37;;
60964;SDS011;46834;51.100;6.886;2023-02-01T00:46:18;7.33;;;3.20;;
60964;SDS011;46834;51.100;6.886;2023-02-01T00:48:46;10.20;;;3.67;;
60964;SDS011;46834;51.100;6.886;2023-02-01T00:51:13;8.80;;;3.57;;
60964;SDS011;46834;51.100;6.886;2023-02-01T00:53:43;10.30;;;3.27;;
60964;SDS011;46834;51.100;6.886;2023-02-01T00:56:09;6.67;;;3.03;;
60964;SDS011;46834;51.100;6.886;2023-02-01T00:58:35;7.43;;;3.20;;
60964;SDS011;46834;51.100;6.886;2023-02-01T01:01:05;9.47;;;3.57;;
60964;SDS011;46834;51.100;6.886;2023-02-01T01:03:35;7.60;;;3.13;;
60964;SDS011;46834;51.100;6.886;2023-02-01T01:06:06;7.50;;;2.93;;
60964;SDS011;46834;51.100;6.886;2023-02-01T01:08:38;7.80;;;2.87;;
60964;SDS011;46834;51.100;6.886;2023-02-01T01:11:09;7.17;;;2.80;;
60964;SDS011;46834;51.100;6.886;2023-02-01T01:13:42;9.50;;;2.60;;
60964;SDS011;46834;51.100;6.886;2023-02-01T01:16:11;6.03;;;2.50;;
60964;SDS011;46834;51.100;6.886;2023-02-01T01:18:37;6.93;;;2.73;;
60964;SDS011;46834;51.100;6.886;2023-02-01T01:21:04;6.97;;;2.70;;
60964;SDS011;46834;51.100;6.886;2023-02-01T01:23:31;7.40;;;2.90;;
60964;SDS011;46834;51.100;6.886;2023-02-01T01:25:57;8.07;;;2.77;;
60964;SDS011;46834;51.100;6.886;2023-02-01T01:28:23;8.97;;;2.60;;
60964;SDS011;46834;51.100;6.886;2023-02-01T01:30:49;7.60;;;2.37;;
60964;SDS011;46834;51.100;6.886;2023-02-01T01:33:15;10.23;;;2.77;;
60964;SDS011;46834;51.100;6.886;2023-02-01T01:35:40;5.73;;;2.47;;
60964;SDS011;46834;51.100;6.886;2023-02-01T01:38:06;9.77;;;2.90;;
60964;SDS011;46834;51.100;6.886;2023-02-01T01:40:35;7.40;;;2.50;;
60964;SDS011;46834;51.100;6.886;2023-02-01T01:43:01;7.93;;;2.50;;
60964;SDS011;46834;51.100;6.886;2023-02-01T01:45:30;7.70;;;2.33;;
60964;SDS011;46834;51.100;6.886;2023-02-01T01:48:07;6.67;;;2.50;;
60964;SDS011;46834;51.100;6.886;2023-02-01T01:50:43;10.13;;;2.50;;
60964;SDS011;46834;51.100;6.886;2023-02-01T01:53:16;7.63;;;2.30;;
60964;SDS011;46834;51.100;6.886;2023-02-01T01:55:52;7.00;;;2.87;;
60964;SDS011;46834;51.100;6.886;2023-02-01T01:58:21;6.63;;;2.30;;
60964;SDS011;46834;51.100;6.886;2023-02-01T02:00:52;7.23;;;2.13;;
60964;SDS011;46834;51.100;6.886;2023-02-01T02:03:23;10.37;;;2.57;;
60964;SDS011;46834;51.100;6.886;2023-02-01T02:06:00;7.67;;;2.60;;
60964;SDS011;46834;51.100;6.886;2023-02-01T02:08:29;8.93;;;2.73;;
60964;SDS011;46834;51.100;6.886;2023-02-01T02:10:55;10.27;;;2.43;;
60964;SDS011;46834;51.100;6.886;2023-02-01T02:13:24;7.13;;;2.40;;
60964;SDS011;46834;51.100;6.886;2023-02-01T02:27:25;6.50;;;2.20;;
60964;SDS011;46834;51.100;6.886;2023-02-01T02:30:38;6.70;;;1.93;;
60964;SDS011;46834;51.100;6.886;2023-02-01T02:36:25;8.00;;;2.50;;
60964;SDS011;46834;51.100;6.886;2023-02-01T02:42:43;6.30;;;2.43;;
60964;SDS011;46834;51.100;6.886;2023-02-01T02:45:53;6.53;;;2.03;;
60964;SDS011;46834;51.100;6.886;2023-02-01T02:49:19;9.03;;;2.30;;
60964;SDS011;46834;51.100;6.886;2023-02-01T02:52:05;8.27;;;2.57;;
60964;SDS011;46834;51.100;6.886;2023-02-01T02:55:00;8.93;;;2.33;;
60964;SDS011;46834;51.100;6.886;2023-02-01T02:57:31;9.93;;;2.20;;
60964;SDS011;46834;51.100;6.886;2023-02-01T03:00:30;10.37;;;2.60;;
60964;SDS011;46834;51.100;6.886;2023-02-01T03:03:17;11.73;;;2.87;;
60964;SDS011;46834;51.100;6.886;2023-02-01T03:06:01;6.73;;;2.40;;
60964;SDS011;46834;51.100;6.886;2023-02-01T03:08:29;7.27;;;2.03;;
60964;SDS011;46834;51.100;6.886;2023-02-01T03:11:06;9.03;;;2.60;;
60964;SDS011;46834;51.100;6.886;2023-02-01T03:16:33;9.60;;;2.93;;
60964;SDS011;46834;51.100;6.886;2023-02-01T03:19:31;9.93;;;2.57;;
60964;SDS011;46834;51.100;6.886;2023-02-01T03:22:09;8.13;;;2.70;;
60964;SDS011;46834;51.100;6.886;2023-02-01T03:25:03;6.77;;;2.43;;
60964;SDS011;46834;51.100;6.886;2023-02-01T03:27:54;9.07;;;2.70;;
60964;SDS011;46834;51.100;6.886;2023-02-01T03:30:31;9.23;;;2.90;;
60964;SDS011;46834;51.100;6.886;2023-02-01T03:33:03;9.30;;;2.80;;
60964;SDS011;46834;51.100;6.886;2023-02-01T03:35:50;8.73;;;2.90;;
60964;SDS011;46834;51.100;6.886;2023-02-01T03:39:02;7.13;;;2.57;;
60964;SDS011;46834;51.100;6.886;2023-02-01T03:41:50;12.57;;;3.20;;
60964;SDS011;46834;51.100;6.886;2023-02-01T03:47:04;13.23;;;3.47;;
60964;SDS011;46834;51.100;6.886;2023-02-01T03:49:49;8.63;;;2.90;;
60964;SDS011;46834;51.100;6.886;2023-02-01T03:52:24;12.20;;;3.13;;
60964;SDS011;46834;51.100;6.886;2023-02-01T03:54:55;10.63;;;2.47;;
60964;SDS011;46834;51.100;6.886;2023-02-01T03:57:25;11.07;;;2.83;;
60964;SDS011;46834;51.100;6.886;2023-02-01T04:00:03;8.83;;;2.73;;
60964;SDS011;46834;51.100;6.886;2023-02-01T04:02:51;8.77;;;2.83;;
60964;SDS011;46834;51.100;6.886;2023-02-01T04:05:18;7.90;;;2.60;;
60964;SDS011;46834;51.100;6.886;2023-02-01T04:07:44;9.13;;;2.83;;
60964;SDS011;46834;51.100;6.886;2023-02-01T04:10:10;8.67;;;2.80;;
60964;SDS011;46834;51.100;6.886;2023-02-01T04:12:38;6.17;;;2.30;;
60964;SDS011;46834;51.100;6.886;2023-02-01T04:15:04;9.03;;;2.67;;
60964;SDS011;46834;51.100;6.886;2023-02-01T04:17:30;10.23;;;3.10;;
60964;SDS011;46834;51.100;6.886;2023-02-01T04:19:56;10.07;;;2.87;;
60964;SDS011;46834;51.100;6.886;2023-02-01T04:22:22;9.27;;;2.97;;
60964;SDS011;46834;51.100;6.886;2023-02-01T04:24:47;14.53;;;2.93;;
60964;SDS011;46834;51.100;6.886;2023-02-01T04:27:13;7.23;;;2.43;;
60964;SDS011;46834;51.100;6.886;2023-02-01T04:29:39;9.93;;;2.70;;
60964;SDS011;46834;51.100;6.886;2023-02-01T04:32:06;6.93;;;2.43;;
60964;SDS011;46834;51.100;6.886;2023-02-01T04:34:31;14.07;;;2.90;;
60964;SDS011;46834;51.100;6.886;2023-02-01T04:36:57;8.33;;;2.63;;
60964;SDS011;46834;51.100;6.886;2023-02-01T04:39:23;12.47;;;2.73;;
60964;SDS011;46834;51.100;6.886;2023-02-01T04:41:48;12.07;;;2.87;;
60964;SDS011;46834;51.100;6.886;2023-02-01T04:44:15;10.33;;;2.50;;
60964;SDS011;46834;51.100;6.886;2023-02-01T04:46:43;10.93;;;2.20;;
60964;SDS011;46834;51.100;6.886;2023-02-01T04:49:11;10.57;;;2.60;;
60964;SDS011;46834;51.100;6.886;2023-02-01T04:51:38;13.40;;;3.13;;
60964;SDS011;46834;51.100;6.886;2023-02-01T04:54:04;14.00;;;3.37;;
60964;SDS011;46834;51.100;6.886;2023-02-01T04:56:30;10.70;;;2.90;;
60964;SDS011;46834;51.100;6.886;2023-02-01T04:58:55;11.40;;;2.40;;
60964;SDS011;46834;51.100;6.886;2023-02-01T05:01:22;9.20;;;2.80;;
60964;SDS011;46834;51.100;6.886;2023-02-01T05:03:49;6.90;;;2.30;;
60964;SDS011;46834;51.100;6.886;2023-02-01T05:06:15;10.87;;;2.70;;
60964;SDS011;46834;51.100;6.886;2023-02-01T05:08:41;12.97;;;3.13;;
60964;SDS011;46834;51.100;6.886;2023-02-01T05:11:07;14.93;;;2.80;;
60964;SDS011;46834;51.100;6.886;2023-02-01T05:13:53;10.00;;;2.83;;
60964;SDS011;46834;51.100;6.886;2023-02-01T05:16:19;9.27;;;3.03;;
60964;SDS011;46834;51.100;6.886;2023-02-01T05:18:44;9.17;;;2.83;;
60964;SDS011;46834;51.100;6.886;2023-02-01T05:21:10;9.80;;;2.80;;
60964;SDS011;46834;51.100;6.886;2023-02-01T05:23:36;16.13;;;3.33;;
60964;SDS011;46834;51.100;6.886;2023-02-01T05:26:22;9.67;;;2.57;;
60964;SDS011;46834;51.100;6.886;2023-02-01T05:28:48;12.43;;;2.60;;
60964;SDS011;46834;51.100;6.886;2023-02-01T05:31:14;14.80;;;2.93;;
60964;SDS011;46834;51.100;6.886;2023-02-01T05:33:40;8.20;;;2.87;;
60964;SDS011;46834;51.100;6.886;2023-02-01T05:36:05;15.20;;;3.10;;
60964;SDS011;46834;51.100;6.886;2023-02-01T05:38:32;8.63;;;2.87;;
60964;SDS011;46834;51.100;6.886;2023-02-01T05:40:58;8.33;;;2.77;;
60964;SDS011;46834;51.100;6.886;2023-02-01T05:43:23;10.13;;;2.10;;
60964;SDS011;46834;51.100;6.886;2023-02-01T05:45:51;11.47;;;3.00;;
60964;SDS011;46834;51.100;6.886;2023-02-01T05:48:17;16.20;;;2.87;;
60964;SDS011;46834;51.100;6.886;2023-02-01T05:50:43;10.83;;;2.87;;
60964;SDS011;46834;51.100;6.886;2023-02-01T05:53:09;7.07;;;2.53;;
60964;SDS011;46834;51.100;6.886;2023-02-01T05:55:36;6.70;;;2.27;;
60964;SDS011;46834;51.100;6.886;2023-02-01T05:58:02;11.53;;;2.60;;
60964;SDS011;46834;51.100;6.886;2023-02-01T06:00:28;5.97;;;2.20;;
60964;SDS011;46834;51.100;6.886;2023-02-01T06:02:54;12.00;;;3.50;;
60964;SDS011;46834;51.100;6.886;2023-02-01T06:05:20;11.07;;;3.23;;
60964;SDS011;46834;51.100;6.886;2023-02-01T06:07:45;12.77;;;2.70;;
60964;SDS011;46834;51.100;6.886;2023-02-01T06:10:11;10.73;;;2.90;;
60964;SDS011;46834;51.100;6.886;2023-02-01T06:12:37;9.77;;;2.30;;
60964;SDS011;46834;51.100;6.886;2023-02-01T06:15:03;12.07;;;2.37;;
60964;SDS011;46834;51.100;6.886;2023-02-01T06:17:29;12.07;;;2.60;;
60964;SDS011;46834;51.100;6.886;2023-02-01T06:19:55;11.43;;;2.73;;
60964;SDS011;46834;51.100;6.886;2023-02-01T06:22:21;12.53;;;2.80;;
60964;SDS011;46834;51.100;6.886;2023-02-01T06:24:47;11.70;;;2.93;;
60964;SDS011;46834;51.100;6.886;2023-02-01T06:27:13;10.50;;;2.60;;
60964;SDS011;46834;51.100;6.886;2023-02-01T06:29:40;9.83;;;2.20;;
60964;SDS011;46834;51.100;6.886;2023-02-01T06:32:06;13.60;;;2.57;;
60964;SDS011;46834;51.100;6.886;2023-02-01T06:34:32;9.53;;;3.10;;
60964;SDS011;46834;51.100;6.886;2023-02-01T06:36:57;10.77;;;2.57;;
60964;SDS011;46834;51.100;6.886;2023-02-01T06:39:23;8.50;;;2.40;;
60964;SDS011;46834;51.100;6.886;2023-02-01T06:41:49;9.50;;;2.40;;
60964;SDS011;46834;51.100;6.886;2023-02-01T06:44:15;12.37;;;2.60;;
60964;SDS011;46834;51.100;6.886;2023-02-01T06:46:41;12.83;;;2.47;;
60964;SDS011;46834;51.100;6.886;2023-02-01T06:49:07;8.77;;;2.67;;
60964;SDS011;46834;51.100;6.886;2023-02-01T06:51:33;9.47;;;2.53;;
60964;SDS011;46834;51.100;6.886;2023-02-01T06:53:59;10.37;;;2.77;;
60964;SDS011;46834;51.100;6.886;2023-02-01T06:56:26;7.03;;;2.43;;
60964;SDS011;46834;51.100;6.886;2023-02-01T06:58:52;8.30;;;2.50;;
60964;SDS011;46834;51.100;6.886;2023-02-01T07:01:18;11.73;;;3.00;;
60964;SDS011;46834;51.100;6.886;2023-02-01T07:03:48;6.87;;;2.40;;
60964;SDS011;46834;51.100;6.886;2023-02-01T07:06:16;14.77;;;3.10;;
60964;SDS011;46834;51.100;6.886;2023-02-01T07:08:42;8.17;;;2.67;;
60964;SDS011;46834;51.100;6.886;2023-02-01T07:11:09;10.10;;;3.00;;
60964;SDS011;46834;51.100;6.886;2023-02-01T07:13:38;9.53;;;2.60;;
60964;SDS011;46834;51.100;6.886;2023-02-01T07:16:05;9.67;;;2.60;;
60964;SDS011;46834;51.100;6.886;2023-02-01T07:18:35;14.33;;;3.30;;
60964;SDS011;46834;51.100;6.886;2023-02-01T07:21:01;9.97;;;3.10;;
60964;SDS011;46834;51.100;6.886;2023-02-01T07:23:27;11.27;;;2.87;;
60964;SDS011;46834;51.100;6.886;2023-02-01T07:25:57;12.83;;;3.03;;
60964;SDS011;46834;51.100;6.886;2023-02-01T07:28:25;14.97;;;3.03;;
60964;SDS011;46834;51.100;6.886;2023-02-01T07:30:54;13.47;;;3.10;;
60964;SDS011;46834;51.100;6.886;2023-02-01T07:33:20;12.17;;;2.60;;
60964;SDS011;46834;51.100;6.886;2023-02-01T07:35:48;10.63;;;2.53;;
60964;SDS011;46834;51.100;6.886;2023-02-01T07:38:15;9.10;;;2.33;;
60964;SDS011;46834;51.100;6.886;2023-02-01T07:40:42;9.27;;;2.70;;
60964;SDS011;46834;51.100;6.886;2023-02-01T07:43:08;10.20;;;2.80;;
60964;SDS011;46834;51.100;6.886;2023-02-01T07:45:35;10.60;;;2.87;;
60964;SDS011;46834;51.100;6.886;2023-02-01T07:48:01;10.50;;;2.63;;
60964;SDS011;46834;51.100;6.886;2023-02-01T07:50:28;11.23;;;2.73;;
60964;SDS011;46834;51.100;6.886;2023-02-01T07:52:54;9.47;;;2.70;;
60964;SDS011;46834;51.100;6.886;2023-02-01T07:55:20;11.93;;;2.70;;
60964;SDS011;46834;51.100;6.886;2023-02-01T07:57:46;7.57;;;2.60;;
60964;SDS011;46834;51.100;6.886;2023-02-01T08:00:12;11.73;;;2.87;;
60964;SDS011;46834;51.100;6.886;2023-02-01T08:02:58;8.73;;;2.43;;
60964;SDS011;46834;51.100;6.886;2023-02-01T08:05:24;9.90;;;2.43;;
60964;SDS011;46834;51.100;6.886;2023-02-01T08:07:50;11.30;;;2.90;;
60964;SDS011;46834;51.100;6.886;2023-02-01T08:10:16;11.43;;;3.50;;
60964;SDS011;46834;51.100;6.886;2023-02-01T08:12:43;13.53;;;3.03;;
60964;SDS011;46834;51.100;6.886;2023-02-01T08:15:13;8.13;;;2.53;;
60964;SDS011;46834;51.100;6.886;2023-02-01T08:17:49;10.23;;;2.87;;
60964;SDS011;46834;51.100;6.886;2023-02-01T08:20:17;11.47;;;2.87;;
60964;SDS011;46834;51.100;6.886;2023-02-01T08:22:44;9.93;;;2.50;;
60964;SDS011;46834;51.100;6.886;2023-02-01T08:25:10;11.03;;;2.43;;
60964;SDS011;46834;51.100;6.886;2023-02-01T08:27:36;11.00;;;2.70;;
60964;SDS011;46834;51.100;6.886;2023-02-01T08:30:03;12.67;;;2.90;;
60964;SDS011;46834;51.100;6.886;2023-02-01T08:32:31;12.43;;;2.90;;
60964;SDS011;46834;51.100;6.886;2023-02-01T08:34:58;10.63;;;3.03;;
60964;SDS011;46834;51.100;6.886;2023-02-01T08:37:24;10.87;;;2.57;;
60964;SDS011;46834;51.100;6.886;2023-02-01T08:39:50;13.60;;;3.03;;
60964;SDS011;46834;51.100;6.886;2023-02-01T08:42:16;12.63;;;2.93;;
60964;SDS011;46834;51.100;6.886;2023-02-01T08:45:01;9.70;;;2.60;;
60964;SDS011;46834;51.100;6.886;2023-02-01T08:47:29;8.97;;;2.50;;
60964;SDS011;46834;51.100;6.886;2023-02-01T08:49:55;7.33;;;2.50;;
60964;SDS011;46834;51.100;6.886;2023-02-01T08:52:22;11.83;;;2.40;;
60964;SDS011;46834;51.100;6.886;2023-02-01T08:54:47;7.40;;;2.07;;
60964;SDS011;46834;51.100;6.886;2023-02-01T08:57:13;12.87;;;2.73;;
60964;SDS011;46834;51.100;6.886;2023-02-01T08:59:39;15.48;;;3.83;;
60964;SDS011;46834;51.100;6.886;2023-02-01T09:02:05;13.73;;;3.33;;
60964;SDS011;46834;51.100;6.886;2023-02-01T09:04:35;12.97;;;3.50;;
60964;SDS011;46834;51.100;6.886;2023-02-01T09:07:01;10.07;;;2.85;;
60964;SDS011;46834;51.100;6.886;2023-02-01T09:09:27;12.93;;;4.00;;
60964;SDS011;46834;51.100;6.886;2023-02-01T09:11:53;10.23;;;3.37;;
60964;SDS011;46834;51.100;6.886;2023-02-01T09:14:18;9.00;;;3.07;;
60964;SDS011;46834;51.100;6.886;2023-02-01T09:16:44;12.37;;;3.30;;
60964;SDS011;46834;51.100;6.886;2023-02-01T09:19:10;9.23;;;3.10;;
60964;SDS011;46834;51.100;6.886;2023-02-01T09:21:35;12.70;;;3.20;;
60964;SDS011;46834;51.100;6.886;2023-02-01T09:24:01;16.45;;;3.95;;
60964;SDS011;46834;51.100;6.886;2023-02-01T09:26:29;16.23;;;4.47;;
60964;SDS011;46834;51.100;6.886;2023-02-01T09:28:54;8.77;;;3.00;;
60964;SDS011;46834;51.100;6.886;2023-02-01T09:31:20;16.45;;;4.15;;
60964;SDS011;46834;51.100;6.886;2023-02-01T09:33:46;10.20;;;3.53;;
60964;SDS011;46834;51.100;6.886;2023-02-01T09:36:11;12.57;;;2.50;;
60964;SDS011;46834;51.100;6.886;2023-02-01T09:38:37;13.03;;;2.53;;
60964;SDS011;46834;51.100;6.886;2023-02-01T09:41:07;13.97;;;2.60;;
60964;SDS011;46834;51.100;6.886;2023-02-01T09:46:35;11.27;;;2.90;;
60964;SDS011;46834;51.100;6.886;2023-02-01T09:49:04;13.90;;;3.03;;
60964;SDS011;46834;51.100;6.886;2023-02-01T09:51:41;12.90;;;2.93;;
60964;SDS011;46834;51.100;6.886;2023-02-01T09:54:25;7.77;;;2.77;;
60964;SDS011;46834;51.100;6.886;2023-02-01T09:57:00;18.35;;;4.47;;
60964;SDS011;46834;51.100;6.886;2023-02-01T09:59:34;13.25;;;3.90;;
60964;SDS011;46834;51.100;6.886;2023-02-01T10:02:20;14.77;;;3.80;;
60964;SDS011;46834;51.100;6.886;2023-02-01T10:04:52;13.35;;;3.95;;
60964;SDS011;46834;51.100;6.886;2023-02-01T10:07:29;10.57;;;3.00;;
60964;SDS011;46834;51.100;6.886;2023-02-01T10:10:43;9.85;;;2.95;;
60964;SDS011;46834;51.100;6.886;2023-02-01T10:13:17;14.13;;;3.35;;
60964;SDS011;46834;51.100;6.886;2023-02-01T10:19:21;13.10;;;4.10;;
60964;SDS011;46834;51.100;6.886;2023-02-01T10:22:06;10.03;;;2.73;;
60964;SDS011;46834;51.100;6.886;2023-02-01T10:25:04;11.30;;;3.47;;
60964;SDS011;46834;51.100;6.886;2023-02-01T10:27:55;16.55;;;3.97;;
60964;SDS011;46834;51.100;6.886;2023-02-01T10:30:29;15.98;;;4.05;;
60964;SDS011;46834;51.100;6.886;2023-02-01T10:33:14;13.02;;;3.38;;
60964;SDS011;46834;51.100;6.886;2023-02-01T10:35:52;13.45;;;4.05;;
60964;SDS011;46834;51.100;6.886;2023-02-01T10:38:27;14.60;;;3.70;;
60964;SDS011;46834;51.100;6.886;2023-02-01T10:41:03;11.52;;;2.85;;
60964;SDS011;46834;51.100;6.886;2023-02-01T10:43:41;8.98;;;2.67;;
60964;SDS011;46834;51.100;6.886;2023-02-01T10:46:09;10.10;;;2.80;;
60964;SDS011;46834;51.100;6.886;2023-02-01T10:48:35;9.55;;;2.47;;
60964;SDS011;46834;51.100;6.886;2023-02-01T10:53:42;12.55;;;3.25;;
60964;SDS011;46834;51.100;6.886;2023-02-01T10:56:14;9.63;;;2.60;;
60964;SDS011;46834;51.100;6.886;2023-02-01T10:58:59;6.45;;;2.63;;
60964;SDS011;46834;51.100;6.886;2023-02-01T11:01:30;7.82;;;2.70;;
60964;SDS011;46834;51.100;6.886;2023-02-01T11:04:25;9.80;;;3.07;;
60964;SDS011;46834;51.100;6.886;2023-02-01T11:07:08;10.73;;;3.10;;
60964;SDS011;46834;51.100;6.886;2023-02-01T11:09:49;8.85;;;2.53;;
60964;SDS011;46834;51.100;6.886;2023-02-01T11:12:22;7.17;;;2.50;;
60964;SDS011;46834;51.100;6.886;2023-02-01T11:17:47;11.23;;;2.70;;
60964;SDS011;46834;51.100;6.886;2023-02-01T11:20:17;11.98;;;2.35;;
60964;SDS011;46834;51.100;6.886;2023-02-01T11:23:05;7.28;;;2.25;;
60964;SDS011;46834;51.100;6.886;2023-02-01T11:28:58;8.65;;;2.20;;
60964;SDS011;46834;51.100;6.886;2023-02-01T11:31:30;7.78;;;2.60;;
60964;SDS011;46834;51.100;6.886;2023-02-01T11:33:59;10.48;;;2.50;;
60964;SDS011;46834;51.100;6.886;2023-02-01T11:36:33;11.25;;;2.85;;
60964;SDS011;46834;51.100;6.886;2023-02-01T11:39:09;8.75;;;2.70;;
60964;SDS011;46834;51.100;6.886;2023-02-01T11:41:55;8.77;;;2.60;;
60964;SDS011;46834;51.100;6.886;2023-02-01T11:44:29;11.60;;;2.53;;
60964;SDS011;46834;51.100;6.886;2023-02-01T11:49:50;11.52;;;2.92;;
60964;SDS011;46834;51.100;6.886;2023-02-01T11:52:26;9.38;;;2.30;;
60964;SDS011;46834;51.100;6.886;2023-02-01T12:03:43;7.90;;;2.17;;
60964;SDS011;46834;51.100;6.886;2023-02-01T12:06:43;12.05;;;2.63;;
60964;SDS011;46834;51.100;6.886;2023-02-01T12:09:13;9.80;;;2.80;;
60964;SDS011;46834;51.100;6.886;2023-02-01T12:12:16;12.27;;;2.42;;
60964;SDS011;46834;51.100;6.886;2023-02-01T12:18:03;9.82;;;2.42;;
60964;SDS011;46834;51.100;6.886;2023-02-01T12:32:45;8.23;;;2.30;;
60964;SDS011;46834;51.100;6.886;2023-02-01T12:35:38;13.75;;;2.70;;
60964;SDS011;46834;51.100;6.886;2023-02-01T12:38:23;10.05;;;2.47;;
60964;SDS011;46834;51.100;6.886;2023-02-01T12:44:02;8.55;;;2.65;;
60964;SDS011;46834;51.100;6.886;2023-02-01T12:46:41;7.47;;;2.40;;
60964;SDS011;46834;51.100;6.886;2023-02-01T12:49:21;7.93;;;2.25;;
60964;SDS011;46834;51.100;6.886;2023-02-01T12:52:03;12.88;;;2.42;;
60964;SDS011;46834;51.100;6.886;2023-02-01T12:55:02;7.60;;;2.38;;
60964;SDS011;46834;51.100;6.886;2023-02-01T12:57:39;10.18;;;2.45;;
60964;SDS011;46834;51.100;6.886;2023-02-01T13:02:50;10.15;;;2.75;;
60964;SDS011;46834;51.100;6.886;2023-02-01T13:05:31;11.45;;;2.78;;
60964;SDS011;46834;51.100;6.886;2023-02-01T13:08:36;8.93;;;2.10;;
60964;SDS011;46834;51.100;6.886;2023-02-01T13:11:24;9.20;;;2.22;;
60964;SDS011;46834;51.100;6.886;2023-02-01T13:14:11;6.97;;;2.17;;
60964;SDS011;46834;51.100;6.886;2023-02-01T13:16:51;7.75;;;1.85;;
60964;SDS011;46834;51.100;6.886;2023-02-01T13:19:28;12.15;;;2.75;;
60964;SDS011;46834;51.100;6.886;2023-02-01T13:22:23;6.25;;;1.80;;
60964;SDS011;46834;51.100;6.886;2023-02-01T13:25:00;10.98;;;2.15;;
60964;SDS011;46834;51.100;6.886;2023-02-01T13:27:39;7.15;;;1.98;;
60964;SDS011;46834;51.100;6.886;2023-02-01T13:41:25;4.72;;;1.70;;
60964;SDS011;46834;51.100;6.886;2023-02-01T13:44:36;6.32;;;1.50;;
60964;SDS011;46834;51.100;6.886;2023-02-01T13:47:16;6.50;;;1.70;;
60964;SDS011;46834;51.100;6.886;2023-02-01T13:50:11;6.75;;;2.17;;
60964;SDS011;46834;51.100;6.886;2023-02-01T13:53:04;7.38;;;1.90;;
60964;SDS011;46834;51.100;6.886;2023-02-01T13:55:38;8.98;;;2.33;;
60964;SDS011;46834;51.100;6.886;2023-02-01T14:00:46;7.60;;;2.38;;
60964;SDS011;46834;51.100;6.886;2023-02-01T14:03:16;7.75;;;1.73;;
60964;SDS011;46834;51.100;6.886;2023-02-01T14:06:14;8.93;;;2.38;;
60964;SDS011;46834;51.100;6.886;2023-02-01T14:14:37;8.27;;;2.50;;
60964;SDS011;46834;51.100;6.886;2023-02-01T14:19:22;11.60;;;2.25;;
60964;SDS011;46834;51.100;6.886;2023-02-01T14:21:53;7.43;;;2.03;;
60964;SDS011;46834;51.100;6.886;2023-02-01T14:24:53;6.15;;;2.13;;
60964;SDS011;46834;51.100;6.886;2023-02-01T14:27:23;6.47;;;2.20;;
60964;SDS011;46834;51.100;6.886;2023-02-01T14:29:55;8.88;;;2.50;;
60964;SDS011;46834;51.100;6.886;2023-02-01T14:32:30;9.20;;;2.45;;
60964;SDS011;46834;51.100;6.886;2023-02-01T14:35:00;8.05;;;2.25;;
60964;SDS011;46834;51.100;6.886;2023-02-01T14:37:32;10.48;;;1.95;;
60964;SDS011;46834;51.100;6.886;2023-02-01T14:40:15;11.30;;;1.92;;
60964;SDS011;46834;51.100;6.886;2023-02-01T14:42:48;7.97;;;2.38;;
60964;SDS011;46834;51.100;6.886;2023-02-01T14:47:52;9.07;;;2.25;;
60964;SDS011;46834;51.100;6.886;2023-02-01T14:55:42;9.25;;;2.22;;
60964;SDS011;46834;51.100;6.886;2023-02-01T14:58:42;9.82;;;2.50;;
60964;SDS011;46834;51.100;6.886;2023-02-01T15:01:32;8.77;;;2.08;;
60964;SDS011;46834;51.100;6.886;2023-02-01T15:09:33;6.93;;;2.08;;
60964;SDS011;46834;51.100;6.886;2023-02-01T15:14:38;7.22;;;2.17;;
60964;SDS011;46834;51.100;6.886;2023-02-01T15:17:22;7.38;;;2.13;;
60964;SDS011;46834;51.100;6.886;2023-02-01T15:20:18;6.18;;;2.05;;
60964;SDS011;46834;51.100;6.886;2023-02-01T15:22:54;4.18;;;1.55;;
60964;SDS011;46834;51.100;6.886;2023-02-01T15:25:33;8.77;;;1.98;;
60964;SDS011;46834;51.100;6.886;2023-02-01T15:28:03;6.93;;;2.00;;
60964;SDS011;46834;51.100;6.886;2023-02-01T15:30:34;8.05;;;2.03;;
60964;SDS011;46834;51.100;6.886;2023-02-01T15:33:33;7.68;;;2.15;;
60964;SDS011;46834;51.100;6.886;2023-02-01T15:38:39;6.07;;;2.10;;
60964;SDS011;46834;51.100;6.886;2023-02-01T15:41:17;6.57;;;1.63;;
60964;SDS011;46834;51.100;6.886;2023-02-01T15:44:02;4.03;;;1.70;;
60964;SDS011;46834;51.100;6.886;2023-02-01T15:46:40;6.60;;;1.80;;
60964;SDS011;46834;51.100;6.886;2023-02-01T15:51:56;6.45;;;1.70;;
60964;SDS011;46834;51.100;6.886;2023-02-01T15:54:32;9.60;;;2.03;;
60964;SDS011;46834;51.100;6.886;2023-02-01T15:57:14;6.30;;;1.92;;
60964;SDS011;46834;51.100;6.886;2023-02-01T15:59:56;7.97;;;2.10;;
60964;SDS011;46834;51.100;6.886;2023-02-01T16:02:34;11.00;;;2.45;;
60964;SDS011;46834;51.100;6.886;2023-02-01T16:08:09;9.10;;;2.45;;
60964;SDS011;46834;51.100;6.886;2023-02-01T16:10:47;6.80;;;2.35;;
60964;SDS011;46834;51.100;6.886;2023-02-01T16:13:17;10.23;;;2.55;;
60964;SDS011;46834;51.100;6.886;2023-02-01T16:15:45;6.55;;;2.03;;
60964;SDS011;46834;51.100;6.886;2023-02-01T16:18:12;7.03;;;1.95;;
60964;SDS011;46834;51.100;6.886;2023-02-01T16:20:39;10.35;;;2.00;;
60964;SDS011;46834;51.100;6.886;2023-02-01T16:23:07;10.93;;;2.20;;
60964;SDS011;46834;51.100;6.886;2023-02-01T16:25:34;9.38;;;2.20;;
60964;SDS011;46834;51.100;6.886;2023-02-01T16:28:01;7.05;;;2.03;;
60964;SDS011;46834;51.100;6.886;2023-02-01T16:30:28;8.30;;;2.00;;
60964;SDS011;46834;51.100;6.886;2023-02-01T16:32:54;8.23;;;1.83;;
60964;SDS011;46834;51.100;6.886;2023-02-01T16:35:23;8.32;;;2.10;;
60964;SDS011;46834;51.100;6.886;2023-02-01T16:37:49;10.27;;;2.35;;
60964;SDS011;46834;51.100;6.886;2023-02-01T16:40:15;6.88;;;1.90;;
60964;SDS011;46834;51.100;6.886;2023-02-01T16:42:46;5.40;;;1.92;;
60964;SDS011;46834;51.100;6.886;2023-02-01T16:45:16;8.20;;;2.15;;
60964;SDS011;46834;51.100;6.886;2023-02-01T16:47:47;10.13;;;2.30;;
60964;SDS011;46834;51.100;6.886;2023-02-01T16:50:20;8.60;;;2.55;;
60964;SDS011;46834;51.100;6.886;2023-02-01T16:52:49;6.38;;;2.22;;
60964;SDS011;46834;51.100;6.886;2023-02-01T16:55:17;9.68;;;2.67;;
60964;SDS011;46834;51.100;6.886;2023-02-01T16:57:46;9.05;;;2.10;;
60964;SDS011;46834;51.100;6.886;2023-02-01T17:00:12;7.28;;;2.25;;
60964;SDS011;46834;51.100;6.886;2023-02-01T17:02:40;9.07;;;2.42;;
60964;SDS011;46834;51.100;6.886;2023-02-01T17:05:07;8.50;;;2.13;;
60964;SDS011;46834;51.100;6.886;2023-02-01T17:07:34;12.10;;;3.03;;
60964;SDS011;46834;51.100;6.886;2023-02-01T17:10:03;9.13;;;2.33;;
60964;SDS011;46834;51.100;6.886;2023-02-01T17:12:31;9.52;;;2.70;;
60964;SDS011;46834;51.100;6.886;2023-02-01T17:14:58;9.20;;;2.17;;